Time;durP1;ratioP1;P1;durP2;ratioP2;P2;SDS_P1;SDS_P2;PMS_P1;PMS_P2;Temp;Humidity;BMP_temperature;BMP_pressure;BME280_temperature;BME280_humidity;BME280_pressure;Samples;Min_cycle;Max_cycle;Signal;HPM_P1;HPM_P2
2022/10/06 00:00:45;;;;;;;6.90;4.57;;;17.00;93.60;;;;;;5092606;28;20099;-68
2022/10/06 00:03:11;;;;;;;8.82;4.60;;;17.00;93.70;;;;;;5092610;28;20123;-69
2022/10/06 00:05:37;;;;;;;10.52;5.50;;;17.00;93.70;;;;;;5092367;28;20394;-68
2022/10/06 00:08:03;;;;;;;10.73;5.05;;;17.00;93.70;;;;;;5092594;28;20405;-69
2022/10/06 00:10:30;;;;;;;16.27;4.90;;;17.00;93.70;;;;;;5092626;28;20032;-69
2022/10/06 00:12:56;;;;;;;9.93;5.53;;;17.00;93.70;;;;;;5092563;28;20077;-69
2022/10/06 00:15:26;;;;;;;16.90;5.78;;;17.00;93.80;;;;;;5092694;28;20041;-69
2022/10/06 00:17:52;;;;;;;22.45;8.50;;;17.00;93.90;;;;;;5092630;28;20036;-68
2022/10/06 00:20:18;;;;;;;24.70;9.93;;;17.00;93.70;;;;;;5092354;28;20065;-69
2022/10/06 00:22:47;;;;;;;13.02;6.15;;;17.00;93.70;;;;;;5092673;28;20427;-69
2022/10/06 00:25:16;;;;;;;14.70;7.15;;;17.00;93.80;;;;;;5092286;28;20131;-69
2022/10/06 00:27:43;;;;;;;12.80;6.28;;;17.00;93.80;;;;;;5092630;28;20043;-69
2022/10/06 00:30:12;;;;;;;15.00;6.65;;;17.00;93.90;;;;;;5092404;28;20159;-68
2022/10/06 00:32:39;;;;;;;12.05;5.80;;;17.00;94.00;;;;;;5092460;28;20028;-69
2022/10/06 00:35:06;;;;;;;13.85;6.15;;;17.00;94.00;;;;;;5092413;28;20121;-68
2022/10/06 00:37:36;;;;;;;20.08;7.45;;;17.00;94.00;;;;;;5092409;28;20386;-69
2022/10/06 00:40:08;;;;;;;16.45;6.75;;;17.00;94.00;;;;;;5092469;28;20154;-69
2022/10/06 00:42:48;;;;;;;11.55;5.38;;;17.00;94.00;;;;;;5092378;28;20027;-69
2022/10/06 00:45:15;;;;;;;23.35;9.10;;;17.00;93.90;;;;;;5092223;28;20052;-67
2022/10/06 00:47:41;;;;;;;21.63;8.38;;;17.00;93.90;;;;;;5074143;28;20414;-69
2022/10/06 00:50:10;;;;;;;23.10;8.88;;;17.00;93.80;;;;;;5092221;28;20117;-68
2022/10/06 00:52:37;;;;;;;34.75;14.07;;;16.90;93.80;;;;;;5092509;28;20052;-69
2022/10/06 00:55:08;;;;;;;23.30;10.95;;;16.90;93.70;;;;;;5092243;28;20036;-69
2022/10/06 00:57:36;;;;;;;34.08;11.77;;;16.90;93.70;;;;;;5091695;28;20030;-68
2022/10/06 01:00:03;;;;;;;26.60;9.80;;;16.90;93.80;;;;;;5089456;28;20044;-69
2022/10/06 01:02:43;;;;;;;21.73;8.73;;;16.90;93.80;;;;;;5089687;28;20043;-69
2022/10/06 01:05:15;;;;;;;16.58;6.32;;;16.80;93.80;;;;;;5090890;28;20050;-69
2022/10/06 01:07:40;;;;;;;9.05;5.07;;;16.80;93.80;;;;;;5091880;28;20482;-69
2022/10/06 01:10:06;;;;;;;9.65;4.88;;;16.80;93.90;;;;;;5095831;28;20039;-69
2022/10/06 01:12:33;;;;;;;9.95;4.63;;;16.80;93.90;;;;;;5095658;28;20386;-68
2022/10/06 01:14:59;;;;;;;13.38;4.55;;;16.80;93.90;;;;;;5096115;28;20032;-69
2022/10/06 01:17:36;;;;;;;10.60;4.50;;;16.70;93.90;;;;;;5095567;28;20081;-69
2022/10/06 01:20:11;;;;;;;13.50;4.75;;;16.70;93.90;;;;;;5095264;28;20032;-68
2022/10/06 01:23:05;;;;;;;7.25;4.35;;;16.70;94.00;;;;;;5095670;28;20036;-69
2022/10/06 01:25:33;;;;;;;7.60;4.15;;;16.70;94.00;;;;;;5095620;28;20040;-69
2022/10/06 01:28:00;;;;;;;7.10;4.75;;;16.70;93.90;;;;;;5095274;28;20390;-68
2022/10/06 01:30:34;;;;;;;10.13;4.40;;;16.70;93.80;;;;;;5095301;28;20032;-69
2022/10/06 01:33:00;;;;;;;8.50;4.40;;;16.70;93.90;;;;;;5095734;28;20370;-69
2022/10/06 01:35:26;;;;;;;7.35;4.40;;;16.60;93.90;;;;;;5095016;28;20027;-69
2022/10/06 01:37:51;;;;;;;8.85;4.72;;;16.60;93.80;;;;;;5095231;28;20035;-69
2022/10/06 01:40:18;;;;;;;12.15;4.22;;;16.60;93.90;;;;;;5095149;28;20489;-69
2022/10/06 01:42:43;;;;;;;9.60;4.32;;;16.60;93.90;;;;;;5095027;28;20505;-69
2022/10/06 01:45:09;;;;;;;7.13;4.35;;;16.60;94.10;;;;;;5095215;28;20040;-68
2022/10/06 01:47:35;;;;;;;11.32;4.40;;;16.60;94.20;;;;;;5095121;28;20032;-69
2022/10/06 01:50:01;;;;;;;10.52;4.70;;;16.60;94.20;;;;;;5094551;28;20047;-69
2022/10/06 01:52:26;;;;;;;6.88;4.40;;;16.60;94.20;;;;;;5095024;28;20034;-69
2022/10/06 01:54:53;;;;;;;13.10;4.70;;;16.60;94.20;;;;;;5095048;28;20031;-69
2022/10/06 01:57:20;;;;;;;9.95;5.30;;;16.60;94.30;;;;;;5094891;28;20093;-69
2022/10/06 01:59:46;;;;;;;7.45;4.20;;;16.60;94.40;;;;;;5094868;28;20081;-69
2022/10/06 02:02:12;;;;;;;7.65;4.90;;;16.60;94.40;;;;;;5094943;28;20565;-69
2022/10/06 02:04:37;;;;;;;9.45;4.38;;;16.60;94.40;;;;;;5094464;28;20119;-69
2022/10/06 02:07:04;;;;;;;8.13;4.55;;;16.60;94.60;;;;;;5094758;28;20389;-69
2022/10/06 02:09:30;;;;;;;8.68;4.60;;;16.60;94.60;;;;;;5094959;28;20038;-69
2022/10/06 02:11:56;;;;;;;9.02;4.82;;;16.60;94.70;;;;;;5094475;28;20040;-69
2022/10/06 02:14:21;;;;;;;11.52;5.55;;;16.70;94.70;;;;;;5094803;28;20119;-69
2022/10/06 02:16:47;;;;;;;6.60;5.28;;;16.70;94.70;;;;;;5094363;28;20135;-69
2022/10/06 02:19:13;;;;;;;13.05;5.53;;;16.70;94.80;;;;;;5094363;28;20032;-69
2022/10/06 02:21:39;;;;;;;9.57;5.40;;;16.70;94.80;;;;;;5094323;28;20089;-69
2022/10/06 02:24:04;;;;;;;9.95;5.20;;;16.70;94.90;;;;;;5094334;28;20043;-69
2022/10/06 02:26:31;;;;;;;7.82;5.35;;;16.70;94.90;;;;;;5094531;28;20040;-68
2022/10/06 02:28:56;;;;;;;14.65;5.70;;;16.70;95.20;;;;;;5094538;28;20424;-69
2022/10/06 02:31:23;;;;;;;9.40;5.05;;;16.70;94.90;;;;;;5094092;28;20036;-69
2022/10/06 02:33:48;;;;;;;11.50;5.15;;;16.80;94.90;;;;;;5094483;28;20036;-69
2022/10/06 02:36:17;;;;;;;7.95;5.10;;;16.70;94.90;;;;;;5094174;28;20042;-69
2022/10/06 02:38:43;;;;;;;8.82;4.78;;;16.80;95.00;;;;;;5094264;28;20032;-69
2022/10/06 02:41:10;;;;;;;10.32;5.20;;;16.80;95.00;;;;;;5094087;28;20036;-69
2022/10/06 02:43:36;;;;;;;11.02;6.60;;;16.80;95.00;;;;;;5094363;28;20083;-69
2022/10/06 02:46:05;;;;;;;17.23;6.68;;;16.80;95.00;;;;;;5094091;28;20051;-69
2022/10/06 02:48:32;;;;;;;12.27;6.55;;;16.80;94.90;;;;;;5094122;28;20394;-68
2022/10/06 02:51:08;;;;;;;14.00;6.25;;;16.80;94.80;;;;;;5093979;28;20036;-69
2022/10/06 02:53:35;;;;;;;11.93;5.45;;;16.80;94.70;;;;;;5093741;28;20508;-69
2022/10/06 02:56:09;;;;;;;8.68;5.30;;;16.70;94.60;;;;;;5093691;28;20032;-69
2022/10/06 02:58:36;;;;;;;9.63;5.35;;;16.70;94.60;;;;;;5094200;28;20032;-69
2022/10/06 03:01:04;;;;;;;8.50;5.18;;;16.70;94.50;;;;;;5093810;28;20059;-68
2022/10/06 03:03:31;;;;;;;8.73;5.43;;;16.70;94.50;;;;;;5093838;28;20024;-68
2022/10/06 03:06:20;;;;;;;14.57;5.90;;;16.70;94.50;;;;;;5093853;28;20051;-69
2022/10/06 03:08:52;;;;;;;11.98;5.63;;;16.70;94.60;;;;;;5093652;28;20048;-69
2022/10/06 03:11:19;;;;;;;10.02;7.13;;;16.70;94.50;;;;;;5093622;28;20035;-69
2022/10/06 03:13:46;;;;;;;8.88;5.93;;;16.70;94.40;;;;;;5093636;28;20503;-69
2022/10/06 03:16:17;;;;;;;13.07;5.95;;;16.70;94.40;;;;;;5093740;28;20028;-68
2022/10/06 03:18:48;;;;;;;11.63;5.78;;;16.60;94.40;;;;;;5093311;28;20028;-68
2022/10/06 03:21:14;;;;;;;8.27;5.85;;;16.60;94.40;;;;;;5093364;28;20040;-69
2022/10/06 03:23:42;;;;;;;11.82;5.30;;;16.60;94.50;;;;;;5093123;28;20111;-69
2022/10/06 03:26:07;;;;;;;13.75;5.90;;;16.70;94.40;;;;;;5092961;28;20040;-68
2022/10/06 03:28:33;;;;;;;11.45;6.20;;;16.70;94.40;;;;;;5093237;28;20076;-69
2022/10/06 03:31:01;;;;;;;10.75;5.88;;;16.60;94.40;;;;;;5092597;28;20060;-68
2022/10/06 03:33:28;;;;;;;14.82;5.97;;;16.60;94.50;;;;;;5093060;28;20032;-69
2022/10/06 03:36:01;;;;;;;10.20;5.57;;;16.60;94.50;;;;;;5092986;28;20028;-69
2022/10/06 03:38:30;;;;;;;14.68;5.30;;;16.60;94.70;;;;;;5093271;28;20070;-69
2022/10/06 03:41:11;;;;;;;8.27;5.28;;;16.60;94.70;;;;;;5093081;28;20032;-68
2022/10/06 03:43:38;;;;;;;12.98;5.80;;;16.60;94.70;;;;;;5092951;28;20032;-68
2022/10/06 03:46:04;;;;;;;12.70;5.65;;;16.70;94.80;;;;;;5093118;28;20039;-68
2022/10/06 03:48:32;;;;;;;11.02;5.65;;;16.60;94.80;;;;;;5093117;28;20028;-69
2022/10/06 03:51:14;;;;;;;13.88;5.20;;;16.70;94.90;;;;;;5092991;28;20039;-68
2022/10/06 03:53:43;;;;;;;10.47;6.20;;;16.70;95.00;;;;;;5093044;28;20030;-69
2022/10/06 03:56:20;;;;;;;13.90;5.95;;;16.70;95.00;;;;;;5092680;28;20581;-69
2022/10/06 03:58:50;;;;;;;6.88;5.45;;;16.70;95.00;;;;;;5093067;28;20385;-69
2022/10/06 04:01:19;;;;;;;10.55;6.00;;;16.70;95.00;;;;;;5092964;28;20024;-68
2022/10/06 04:03:45;;;;;;;9.48;5.70;;;16.70;95.10;;;;;;5092831;28;20032;-69
2022/10/06 04:06:18;;;;;;;12.48;6.25;;;16.70;95.10;;;;;;5093004;28;20489;-69
2022/10/06 04:08:46;;;;;;;10.38;5.63;;;16.70;95.10;;;;;;5092700;28;20405;-69
2022/10/06 04:11:16;;;;;;;11.45;5.75;;;16.70;95.10;;;;;;5092318;28;20446;-69
2022/10/06 04:13:43;;;;;;;11.25;6.50;;;16.70;95.20;;;;;;5092495;28;20036;-69
2022/10/06 04:16:18;;;;;;;8.93;6.32;;;16.70;95.20;;;;;;5092895;28;20111;-69
2022/10/06 04:18:47;;;;;;;11.20;6.13;;;16.80;95.20;;;;;;5092898;28;20055;-69
2022/10/06 04:21:13;;;;;;;8.63;6.10;;;16.80;95.10;;;;;;5092474;28;20541;-69
2022/10/06 04:23:39;;;;;;;12.63;6.55;;;16.80;95.20;;;;;;5092680;28;20039;-69
2022/10/06 04:26:09;;;;;;;8.70;6.10;;;16.80;95.10;;;;;;5092884;28;20044;-69
2022/10/06 04:28:37;;;;;;;10.57;6.75;;;16.80;95.20;;;;;;5092857;28;20085;-69
2022/10/06 04:31:05;;;;;;;10.40;6.95;;;16.80;95.20;;;;;;5092641;28;20090;-69
2022/10/06 04:33:33;;;;;;;9.18;6.82;;;16.80;95.20;;;;;;5092533;28;20366;-69
2022/10/06 04:36:01;;;;;;;10.52;7.22;;;16.80;95.20;;;;;;5092482;28;20040;-69
2022/10/06 04:38:28;;;;;;;11.90;6.93;;;16.80;95.20;;;;;;5092598;28;20028;-68
2022/10/06 04:41:14;;;;;;;14.35;7.32;;;16.80;95.10;;;;;;5092500;28;20043;-69
2022/10/06 04:43:40;;;;;;;15.27;6.95;;;16.80;95.10;;;;;;5093930;28;20041;-69
2022/10/06 04:46:06;;;;;;;10.63;6.45;;;16.90;95.10;;;;;;5096250;28;20074;-68
2022/10/06 04:48:32;;;;;;;12.73;7.35;;;16.80;95.10;;;;;;5096311;28;20497;-69
2022/10/06 04:51:04;;;;;;;9.98;6.97;;;16.80;95.10;;;;;;5095867;28;20117;-69
2022/10/06 04:53:31;;;;;;;11.07;6.60;;;16.80;95.20;;;;;;5096146;28;20105;-68
2022/10/06 04:56:01;;;;;;;11.43;6.82;;;16.80;95.20;;;;;;5096216;28;20103;-68
2022/10/06 04:58:35;;;;;;;11.45;7.05;;;16.80;95.30;;;;;;5096182;28;20115;-68
2022/10/06 05:01:01;;;;;;;16.27;8.05;;;16.80;95.20;;;;;;5096266;28;20111;-68
2022/10/06 05:03:28;;;;;;;11.48;6.25;;;16.80;95.30;;;;;;5096100;28;20032;-69
2022/10/06 05:06:12;;;;;;;10.05;6.75;;;16.80;95.30;;;;;;5095797;28;20073;-72
2022/10/06 05:08:38;;;;;;;12.68;6.22;;;16.80;95.30;;;;;;5095773;28;20055;-69
2022/10/06 05:11:08;;;;;;;17.75;6.50;;;16.80;95.30;;;;;;5095697;28;20113;-69
2022/10/06 05:13:35;;;;;;;14.07;6.78;;;16.80;95.30;;;;;;5095595;28;20034;-68
2022/10/06 05:16:02;;;;;;;11.38;6.63;;;16.80;95.30;;;;;;5095472;28;20048;-69
2022/10/06 05:18:30;;;;;;;9.65;6.75;;;16.80;95.30;;;;;;5094688;28;20055;-71
2022/10/06 05:21:05;;;;;;;12.82;6.57;;;16.80;95.30;;;;;;5094715;28;20032;-69
2022/10/06 05:23:33;;;;;;;10.35;7.35;;;16.80;95.30;;;;;;5095340;28;20512;-69
2022/10/06 05:25:59;;;;;;;9.20;6.90;;;16.80;95.30;;;;;;5095000;28;20039;-71
2022/10/06 05:28:27;;;;;;;13.15;6.72;;;16.80;95.30;;;;;;5094992;28;20028;-68
2022/10/06 05:30:58;;;;;;;13.32;6.85;;;16.80;95.30;;;;;;5094525;28;20115;-69
2022/10/06 05:33:25;;;;;;;15.65;8.55;;;16.80;95.20;;;;;;5095090;28;20116;-69
2022/10/06 05:35:56;;;;;;;22.35;8.50;;;16.80;95.20;;;;;;5095217;28;20032;-69
2022/10/06 05:38:22;;;;;;;14.02;8.55;;;16.80;95.20;;;;;;5094868;28;20058;-69
2022/10/06 05:40:48;;;;;;;22.00;8.48;;;16.70;95.10;;;;;;5094783;28;20531;-69
2022/10/06 05:43:15;;;;;;;13.07;7.35;;;16.70;95.10;;;;;;5094826;28;20048;-72
2022/10/06 05:45:40;;;;;;;20.13;7.30;;;16.70;95.20;;;;;;5095277;28;20076;-69
2022/10/06 05:48:06;;;;;;;11.00;7.40;;;16.70;95.20;;;;;;5095142;28;20398;-69
2022/10/06 05:50:32;;;;;;;12.60;6.88;;;16.70;95.30;;;;;;5094708;28;20032;-68
2022/10/06 05:52:57;;;;;;;12.65;6.90;;;16.70;95.30;;;;;;5094645;28;20037;-68
2022/10/06 05:55:23;;;;;;;10.65;6.90;;;16.70;95.30;;;;;;5094345;28;20450;-69
2022/10/06 05:57:49;;;;;;;10.30;6.95;;;16.70;95.30;;;;;;5094697;28;20496;-68
2022/10/06 06:00:14;;;;;;;11.40;6.90;;;16.70;95.30;;;;;;5094790;28;20040;-72
2022/10/06 06:02:40;;;;;;;9.30;6.97;;;16.80;95.30;;;;;;5094679;28;20103;-71
2022/10/06 06:05:06;;;;;;;11.50;7.45;;;16.80;95.30;;;;;;5094642;28;20076;-69
2022/10/06 06:07:31;;;;;;;14.50;7.80;;;16.80;95.30;;;;;;5094179;28;20394;-69
2022/10/06 06:09:57;;;;;;;13.95;9.35;;;16.80;95.40;;;;;;5094537;28;20111;-71
2022/10/06 06:12:23;;;;;;;12.75;8.75;;;16.80;95.40;;;;;;5094133;28;20036;-70
2022/10/06 06:17:33;;;;;;;12.02;8.50;;;16.90;95.50;;;;;;5094649;28;20039;-69
2022/10/06 06:19:58;;;;;;;13.43;8.77;;;16.90;95.50;;;;;;5094242;28;20032;-75
2022/10/06 06:22:24;;;;;;;16.90;9.77;;;16.90;95.40;;;;;;5094164;28;20496;-70
2022/10/06 06:24:50;;;;;;;16.95;13.20;;;17.00;95.40;;;;;;5094028;28;20803;-70
2022/10/06 06:27:16;;;;;;;20.95;9.82;;;17.00;95.80;;;;;;5094342;28;20504;-77
2022/10/06 06:29:41;;;;;;;27.65;9.82;;;17.10;95.70;;;;;;5094098;28;20054;-81
2022/10/06 06:32:08;;;;;;;63.42;11.73;;;17.20;95.40;;;;;;5094044;28;20040;-76
2022/10/06 06:34:34;;;;;;;21.45;10.40;;;17.30;95.30;;;;;;5093989;28;20032;-80
2022/10/06 06:37:00;;;;;;;17.20;9.52;;;17.30;95.00;;;;;;5093991;28;20035;-70
2022/10/06 06:39:26;;;;;;;22.45;9.48;;;17.40;95.00;;;;;;5093859;28;20505;-75
2022/10/06 06:41:52;;;;;;;22.75;9.30;;;17.40;94.90;;;;;;5093933;28;20158;-71
2022/10/06 06:44:19;;;;;;;214.63;16.02;;;17.50;95.90;;;;;;5093559;28;20553;-69
2022/10/06 06:46:48;;;;;;;35.83;9.88;;;17.60;96.40;;;;;;5093145;28;20036;-73
2022/10/06 06:49:14;;;;;;;15.38;10.43;;;17.70;96.80;;;;;;5093169;28;20031;-74
2022/10/06 06:51:42;;;;;;;20.65;9.75;;;17.70;96.70;;;;;;5093754;28;20371;-74
2022/10/06 06:54:09;;;;;;;14.80;9.88;;;17.70;96.90;;;;;;5093575;28;20059;-73
2022/10/06 06:56:35;;;;;;;13.63;9.73;;;17.60;96.80;;;;;;5093332;28;20032;-74
2022/10/06 06:59:12;;;;;;;14.32;9.57;;;17.70;96.80;;;;;;5093671;28;20111;-73
2022/10/06 07:01:43;;;;;;;16.10;9.65;;;17.70;96.90;;;;;;5093437;28;20500;-74
2022/10/06 07:04:10;;;;;;;14.45;9.50;;;17.70;96.70;;;;;;5093462;28;20036;-73
2022/10/06 07:06:38;;;;;;;18.30;10.27;;;17.70;96.60;;;;;;5092852;28;20036;-74
2022/10/06 07:09:05;;;;;;;19.40;10.60;;;17.70;96.10;;;;;;5093346;28;20073;-73
2022/10/06 07:11:36;;;;;;;16.95;10.90;;;17.70;95.70;;;;;;5093893;28;20466;-73
2022/10/06 07:14:07;;;;;;;20.80;11.02;;;17.70;95.20;;;;;;5093057;28;20020;-73
2022/10/06 07:25:07;;;;;;;23.17;11.77;;;17.90;94.20;;;;;;5092632;28;20456;-82
2022/10/06 07:27:49;;;;;;;35.03;12.40;;;17.90;94.10;;;;;;5092381;28;20429;-78
2022/10/06 07:30:22;;;;;;;21.42;12.38;;;18.00;93.90;;;;;;5092515;28;20545;-73
2022/10/06 07:32:49;;;;;;;28.67;13.00;;;18.00;93.90;;;;;;5092551;28;20074;-73
2022/10/06 07:35:19;;;;;;;23.02;12.85;;;18.00;93.90;;;;;;5092883;28;20036;-73
2022/10/06 07:37:45;;;;;;;20.05;12.82;;;18.10;93.90;;;;;;5093094;28;20067;-77
2022/10/06 07:40:11;;;;;;;20.27;13.40;;;18.10;93.90;;;;;;5097248;28;20025;-73
2022/10/06 07:42:47;;;;;;;22.85;14.40;;;18.10;93.80;;;;;;5092608;28;20086;-73
2022/10/06 07:48:13;;;;;;;20.30;12.40;;;18.20;93.70;;;;;;5092668;28;20039;-73
2022/10/06 07:50:39;;;;;;;21.88;13.70;;;18.30;93.70;;;;;;5092944;28;20051;-80
2022/10/06 07:53:07;;;;;;;16.45;12.90;;;18.30;93.50;;;;;;5092821;28;20024;-73
2022/10/06 07:55:35;;;;;;;16.40;13.50;;;18.40;93.20;;;;;;5092344;28;20036;-74
2022/10/06 07:58:00;;;;;;;19.20;12.23;;;18.40;93.10;;;;;;5092353;28;20465;-73
2022/10/06 08:00:26;;;;;;;19.08;14.15;;;18.50;93.00;;;;;;5092715;28;20032;-82
2022/10/06 08:02:53;;;;;;;19.35;13.55;;;18.50;92.90;;;;;;5092327;28;20033;-73
2022/10/06 08:05:20;;;;;;;20.38;12.52;;;18.60;92.80;;;;;;5092646;28;20508;-74
2022/10/06 08:07:45;;;;;;;21.08;12.32;;;18.60;92.60;;;;;;5092295;28;20448;-73
2022/10/06 08:10:11;;;;;;;20.20;11.98;;;18.70;92.60;;;;;;5092458;28;20077;-74
2022/10/06 08:12:39;;;;;;;27.27;12.27;;;18.70;92.50;;;;;;5092337;28;20036;-76
2022/10/06 08:15:07;;;;;;;25.27;12.57;;;18.80;92.50;;;;;;5092201;28;20427;-74
2022/10/06 08:17:36;;;;;;;18.27;12.73;;;18.80;92.50;;;;;;5093728;28;20035;-73
2022/10/06 08:20:23;;;;;;;21.08;11.15;;;18.90;92.30;;;;;;5096580;28;20394;-81
2022/10/06 08:22:48;;;;;;;17.52;11.13;;;18.90;92.30;;;;;;5096362;28;20040;-80
2022/10/06 08:25:14;;;;;;;19.48;12.32;;;18.90;92.30;;;;;;5096525;28;20040;-80
2022/10/06 08:27:42;;;;;;;21.30;13.30;;;19.00;92.30;;;;;;5096286;28;20029;-81
2022/10/06 08:30:10;;;;;;;18.13;12.02;;;19.00;91.70;;;;;;5096130;28;20086;-74
2022/10/06 08:32:36;;;;;;;19.17;12.48;;;19.00;91.50;;;;;;5096171;28;20036;-81
2022/10/06 08:35:02;;;;;;;19.30;12.10;;;19.00;91.70;;;;;;5096339;28;20068;-80
2022/10/06 08:37:28;;;;;;;19.40;10.88;;;19.10;91.80;;;;;;5096225;28;20036;-79
2022/10/06 08:39:55;;;;;;;19.60;11.52;;;19.10;91.70;;;;;;5096481;28;20401;-73
2022/10/06 08:42:40;;;;;;;17.63;11.70;;;19.20;91.80;;;;;;5096680;28;20048;-73
2022/10/06 08:45:25;;;;;;;19.27;12.20;;;19.30;91.40;;;;;;5096409;28;20044;-74
2022/10/06 08:48:18;;;;;;;17.20;12.00;;;19.30;91.10;;;;;;5096105;28;20029;-73
2022/10/06 08:51:10;;;;;;;15.40;10.15;;;19.30;90.80;;;;;;5096147;28;20036;-73
2022/10/06 08:53:50;;;;;;;17.20;11.48;;;19.40;90.90;;;;;;5072389;28;20047;-73
2022/10/06 08:56:21;;;;;;;16.15;10.38;;;19.40;91.40;;;;;;5096242;28;20065;-74
2022/10/06 08:59:02;;;;;;;18.38;11.27;;;19.50;91.20;;;;;;5096172;28;20032;-74
2022/10/06 09:01:42;;;;;;;17.95;11.20;;;19.60;90.60;;;;;;5095707;28;20108;-74
2022/10/06 09:04:12;;;;;;;17.77;10.77;;;19.60;90.30;;;;;;5095871;28;20040;-74
2022/10/06 09:06:58;;;;;;;15.98;10.65;;;19.70;90.10;;;;;;5095682;28;20048;-74
2022/10/06 09:09:37;;;;;;;16.15;9.80;;;19.70;90.10;;;;;;5095988;28;20040;-73
2022/10/06 09:12:26;;;;;;;21.70;11.77;;;19.80;90.20;;;;;;5095816;28;20031;-73
2022/10/06 09:15:22;;;;;;;19.35;11.70;;;19.90;90.00;;;;;;5095734;28;20032;-73
2022/10/06 09:18:19;;;;;;;20.27;10.63;;;19.90;90.00;;;;;;5095602;28;20381;-74
2022/10/06 09:20:58;;;;;;;15.50;10.27;;;19.90;89.90;;;;;;5095566;28;20110;-81
2022/10/06 09:23:49;;;;;;;12.90;8.77;;;20.00;89.90;;;;;;5095081;28;20044;-73
2022/10/06 09:26:21;;;;;;;13.63;9.07;;;20.00;89.60;;;;;;5095342;28;20063;-76
2022/10/06 09:28:50;;;;;;;22.55;9.13;;;20.10;88.00;;;;;;5094279;28;20086;-82
2022/10/06 09:31:36;;;;;;;13.88;8.15;;;20.10;88.20;;;;;;5077322;28;20402;-73
2022/10/06 09:34:11;;;;;;;12.60;9.23;;;20.20;88.50;;;;;;5095006;28;20142;-73
2022/10/06 09:37:21;;;;;;;13.18;9.88;;;20.30;87.00;;;;;;5095495;28;20040;-75
2022/10/06 09:39:51;;;;;;;17.25;9.23;;;20.30;86.50;;;;;;5091721;28;20040;-74
2022/10/06 09:42:29;;;;;;;13.80;9.90;;;20.40;86.00;;;;;;5095045;28;20151;-75
2022/10/06 09:45:04;;;;;;;18.90;9.02;;;20.50;85.40;;;;;;5093612;28;20055;-73
2022/10/06 09:47:43;;;;;;;12.13;8.65;;;20.50;85.30;;;;;;5094847;28;20031;-74
2022/10/06 09:50:19;;;;;;;16.67;8.80;;;20.60;85.30;;;;;;5094812;28;20124;-75
2022/10/06 09:52:56;;;;;;;16.50;8.55;;;20.70;84.70;;;;;;5094359;28;20028;-74
2022/10/06 09:55:27;;;;;;;12.30;7.38;;;20.70;85.00;;;;;;5093446;28;20470;-74
2022/10/06 09:57:56;;;;;;;11.98;6.78;;;20.80;85.00;;;;;;5094408;28;20474;-79
2022/10/06 10:00:28;;;;;;;11.75;7.43;;;20.90;84.20;;;;;;5094938;28;20367;-74
2022/10/06 10:02:58;;;;;;;10.90;7.55;;;21.00;83.20;;;;;;5094596;28;20078;-82
2022/10/06 10:05:27;;;;;;;13.40;7.47;;;21.10;82.00;;;;;;5094747;28;20044;-74
2022/10/06 10:08:08;;;;;;;13.25;7.43;;;21.10;81.60;;;;;;5094674;28;20123;-84
2022/10/06 10:10:36;;;;;;;11.00;7.00;;;21.20;80.50;;;;;;5094553;28;20081;-74
2022/10/06 10:13:03;;;;;;;11.98;8.55;;;21.20;80.50;;;;;;5094606;28;20111;-82
2022/10/06 10:15:37;;;;;;;8.77;7.10;;;21.20;81.70;;;;;;5094381;28;20043;-73
2022/10/06 10:18:11;;;;;;;10.60;7.28;;;21.30;81.20;;;;;;5094542;28;20028;-74
2022/10/06 10:20:51;;;;;;;15.80;7.93;;;21.30;80.70;;;;;;5094631;28;20041;-73
2022/10/06 10:23:35;;;;;;;15.88;9.48;;;21.40;80.90;;;;;;5094313;28;20036;-83
2022/10/06 10:26:16;;;;;;;11.00;8.07;;;21.40;80.20;;;;;;5094320;28;20106;-74
2022/10/06 10:29:06;;;;;;;9.93;7.68;;;21.50;80.50;;;;;;5094030;28;20056;-74
2022/10/06 10:31:47;;;;;;;10.93;7.57;;;21.50;81.10;;;;;;5093947;28;20061;-74
2022/10/06 10:34:37;;;;;;;11.93;6.32;;;21.60;80.60;;;;;;5094079;28;20059;-74
2022/10/06 10:37:18;;;;;;;15.70;8.27;;;21.70;80.40;;;;;;5093954;28;20427;-77
2022/10/06 10:40:11;;;;;;;14.63;8.95;;;21.70;80.10;;;;;;5093449;28;20039;-74
2022/10/06 10:42:49;;;;;;;11.02;7.10;;;21.80;79.60;;;;;;5093704;28;20040;-73
2022/10/06 10:45:27;;;;;;;12.43;8.10;;;21.80;79.80;;;;;;5093027;28;20096;-85
2022/10/06 10:47:55;;;;;;;11.90;7.97;;;21.90;79.00;;;;;;5093931;28;20038;-74
2022/10/06 10:50:30;;;;;;;11.27;7.75;;;22.00;77.80;;;;;;5093429;28;20450;-74
2022/10/06 10:53:28;;;;;;;12.00;6.95;;;22.00;76.10;;;;;;5093247;28;21002;-73
2022/10/06 10:55:54;;;;;;;11.25;6.28;;;22.10;76.80;;;;;;5093037;28;20490;-74
2022/10/06 10:58:48;;;;;;;8.32;6.10;;;22.10;76.60;;;;;;5092966;28;20509;-74
2022/10/06 11:01:17;;;;;;;11.20;5.90;;;22.20;77.10;;;;;;5089078;28;20044;-75
2022/10/06 11:03:43;;;;;;;9.55;6.00;;;22.30;75.70;;;;;;5087692;28;20036;-75
2022/10/06 11:06:12;;;;;;;10.35;5.78;;;22.30;75.20;;;;;;5090962;28;20055;-74
2022/10/06 11:09:01;;;;;;;6.97;4.70;;;22.40;74.60;;;;;;5093023;28;20055;-74
2022/10/06 11:11:44;;;;;;;18.75;5.20;;;22.40;74.40;;;;;;5092844;28;20036;-74
2022/10/06 11:14:32;;;;;;;11.35;6.05;;;22.50;75.40;;;;;;5092956;28;20477;-74
2022/10/06 11:17:05;;;;;;;10.23;4.85;;;22.60;76.20;;;;;;5093069;28;20448;-74
2022/10/06 11:19:54;;;;;;;7.80;5.25;;;22.60;75.30;;;;;;5093183;28;20024;-74
2022/10/06 11:22:40;;;;;;;10.50;5.32;;;22.60;73.50;;;;;;5093212;28;20036;-74
2022/10/06 11:25:24;;;;;;;12.10;5.10;;;22.70;74.50;;;;;;5092049;28;20406;-77
2022/10/06 11:28:07;;;;;;;9.70;5.05;;;22.70;75.10;;;;;;5090338;28;20028;-74
2022/10/06 11:30:38;;;;;;;9.13;5.50;;;22.80;74.00;;;;;;5090580;28;20051;-74
2022/10/06 11:33:32;;;;;;;6.95;4.78;;;22.90;74.10;;;;;;5092565;28;20042;-74
2022/10/06 11:35:59;;;;;;;13.32;4.82;;;23.00;74.10;;;;;;5092855;28;20115;-75
2022/10/06 11:38:55;;;;;;;7.25;4.88;;;23.10;73.10;;;;;;5092826;28;20043;-74
2022/10/06 11:41:37;;;;;;;11.80;5.00;;;23.10;73.20;;;;;;5092003;28;20098;-75
2022/10/06 11:44:25;;;;;;;7.05;4.45;;;23.10;73.70;;;;;;5092290;28;20107;-75
2022/10/06 11:46:56;;;;;;;14.00;4.60;;;23.20;72.70;;;;;;5092816;28;20541;-75
2022/10/06 11:49:28;;;;;;;7.45;4.75;;;23.20;73.10;;;;;;5092950;28;20032;-75
2022/10/06 11:52:17;;;;;;;9.70;5.20;;;23.20;73.30;;;;;;5092658;28;20040;-75
2022/10/06 11:55:04;;;;;;;8.07;4.72;;;23.30;73.60;;;;;;5089853;28;20070;-74
2022/10/06 11:57:31;;;;;;;16.63;4.93;;;23.30;73.50;;;;;;5092880;28;20036;-75
2022/10/06 12:00:03;;;;;;;8.88;4.00;;;23.40;71.60;;;;;;5092926;28;20559;-75
2022/10/06 12:02:29;;;;;;;7.40;4.43;;;23.40;72.70;;;;;;5093050;28;20083;-75
2022/10/06 12:05:13;;;;;;;9.68;4.57;;;23.50;73.00;;;;;;5092845;28;20124;-78
2022/10/06 12:07:56;;;;;;;6.60;4.32;;;23.50;71.50;;;;;;5092536;28;20054;-74
2022/10/06 12:10:28;;;;;;;7.25;3.95;;;23.60;71.80;;;;;;5092888;28;20066;-74
2022/10/06 12:13:14;;;;;;;10.82;4.22;;;23.60;71.10;;;;;;5092626;28;20028;-74
2022/10/06 12:16:04;;;;;;;7.70;4.68;;;23.60;71.60;;;;;;5092241;28;20436;-75
2022/10/06 12:18:51;;;;;;;8.82;5.05;;;23.60;70.80;;;;;;5091160;28;20037;-75
2022/10/06 12:21:39;;;;;;;9.30;4.32;;;23.60;70.10;;;;;;5092834;28;20039;-75
2022/10/06 12:24:45;;;;;;;6.65;4.28;;;23.60;71.10;;;;;;5092685;28;20476;-74
2022/10/06 12:27:42;;;;;;;8.43;3.83;;;23.60;71.60;;;;;;5081162;28;20050;-74
2022/10/06 12:30:43;;;;;;;8.75;4.35;;;23.60;72.20;;;;;;5092824;28;20036;-76
2022/10/06 12:33:17;;;;;;;11.35;4.47;;;23.60;71.70;;;;;;5086626;28;20043;-74
2022/10/06 12:35:43;;;;;;;12.32;4.30;;;23.60;70.70;;;;;;5092519;28;20028;-75
2022/10/06 12:38:34;;;;;;;8.82;4.32;;;23.70;70.30;;;;;;5092730;28;20032;-75
2022/10/06 12:41:00;;;;;;;6.78;3.78;;;23.70;70.40;;;;;;5092638;28;20166;-74
2022/10/06 12:43:30;;;;;;;6.93;4.35;;;23.80;71.10;;;;;;5092475;28;20454;-74
2022/10/06 12:46:06;;;;;;;5.68;4.05;;;23.90;71.20;;;;;;5092524;28;20076;-74
2022/10/06 12:49:05;;;;;;;8.48;4.18;;;23.90;69.60;;;;;;5092501;28;20032;-74
2022/10/06 12:51:37;;;;;;;4.75;3.72;;;24.00;68.90;;;;;;5092607;28;20024;-74
2022/10/06 12:54:11;;;;;;;4.30;3.60;;;24.00;68.60;;;;;;5092648;28;20063;-74
2022/10/06 12:56:39;;;;;;;4.55;3.75;;;24.10;69.60;;;;;;5091769;28;20084;-75
2022/10/06 12:59:46;;;;;;;5.82;3.60;;;24.10;70.00;;;;;;5092338;28;20032;-82
2022/10/06 13:02:24;;;;;;;8.98;3.92;;;24.20;68.60;;;;;;5087417;28;20048;-75
2022/10/06 13:04:59;;;;;;;12.68;4.50;;;24.20;68.30;;;;;;5094192;28;20036;-74
2022/10/06 13:07:30;;;;;;;6.25;3.70;;;24.20;69.00;;;;;;5095229;28;20048;-74
2022/10/06 13:10:18;;;;;;;11.10;3.85;;;24.20;68.20;;;;;;5095459;28;20440;-80
2022/10/06 13:12:46;;;;;;;6.60;3.40;;;24.30;68.30;;;;;;5095620;28;20045;-74
2022/10/06 13:15:14;;;;;;;7.82;3.97;;;24.30;68.60;;;;;;5095745;28;20370;-75
2022/10/06 13:17:51;;;;;;;8.07;3.42;;;24.30;68.50;;;;;;5077231;28;20421;-75